| time (UTC) | temp C | wind direction | speed KPH | gust KPH | rain 1hr cm | rain 24hr cm | rain mn cm | humidity % | barometer mb |
| 20260504202452 | 21 | 186 | 4.8 | 14.5 | 0.00 | 0.00 | 0.00 | 48 | 1013.9 |
| 20260504201952 | 20 | 331 | 6.4 | 14.5 | 0.00 | 0.00 | 0.00 | 51 | 1013.9 |
| 20260504201452 | 20 | 282 | 6.4 | 14.5 | 0.00 | 0.00 | 0.00 | 50 | 1014.0 |
| 20260504200953 | 20 | 211 | 4.8 | 14.5 | 0.00 | 0.00 | 0.00 | 51 | 1013.9 |
| 20260504200452 | 20 | 187 | 6.4 | 14.5 | 0.00 | 0.00 | 0.00 | 51 | 1014.1 |
| 20260504195950 | 20 | 148 | 8.0 | 25.7 | 0.00 | 0.00 | 0.00 | 51 | 1014.3 |
| 20260504195449 | 20 | 246 | 8.0 | 25.7 | 0.00 | 0.00 | 0.00 | 52 | 1014.4 |
| 20260504194946 | 20 | 308 | 9.7 | 24.1 | 0.00 | 0.00 | 0.00 | 51 | 1014.4 |
| 20260504194447 | 20 | 333 | 8.0 | 24.1 | 0.00 | 0.00 | 0.00 | 53 | 1014.4 |
| 20260504193947 | 20 | 302 | 6.4 | 17.7 | 0.00 | 0.00 | 0.00 | 53 | 1014.5 |
| 20260504193447 | 20 | 176 | 4.8 | 14.5 | 0.00 | 0.00 | 0.00 | 52 | 1014.6 |
| 20260504192947 | 20 | 170 | 4.8 | 14.5 | 0.00 | 0.00 | 0.00 | 56 | 1014.7 |
| 20260504192447 | 20 | 189 | 6.4 | 16.1 | 0.00 | 0.00 | 0.00 | 54 | 1014.8 |
| 20260504191947 | 19 | 286 | 9.7 | 20.9 | 0.00 | 0.00 | 0.00 | 54 | 1014.8 |
| 20260504191447 | 19 | 301 | 8.0 | 20.9 | 0.00 | 0.00 | 0.00 | 53 | 1014.9 |
| 20260504190948 | 19 | 250 | 6.4 | 12.9 | 0.00 | 0.00 | 0.00 | 55 | 1015.0 |
| 20260504190447 | 18 | 315 | 8.0 | 17.7 | 0.00 | 0.00 | 0.00 | 54 | 1015.0 |
| 20260504185948 | 18 | 243 | 8.0 | 17.7 | 0.00 | 0.00 | 0.00 | 54 | 1015.2 |
| 20260504185444 | 19 | 223 | 8.0 | 17.7 | 0.00 | 0.00 | 0.00 | 53 | 1015.2 |
| 20260504184942 | 19 | 10 | 6.4 | 17.7 | 0.00 | 0.00 | 0.00 | 53 | 1015.3 |
| 20260504184441 | 18 | 296 | 6.4 | 17.7 | 0.00 | 0.00 | 0.00 | 56 | 1015.3 |
| 20260504183942 | 18 | 260 | 6.4 | 16.1 | 0.00 | 0.00 | 0.00 | 54 | 1015.4 |
| 20260504183442 | 18 | 312 | 8.0 | 17.7 | 0.00 | 0.00 | 0.00 | 53 | 1015.4 |
| 20260504182942 | 18 | 289 | 6.4 | 17.7 | 0.00 | 0.00 | 0.00 | 53 | 1015.4 |
| 20260504182442 | 18 | 288 | 4.8 | 12.9 | 0.00 | 0.00 | 0.00 | 55 | 1015.7 |
| 20260504181942 | 17 | 238 | 4.8 | 14.5 | 0.00 | 0.00 | 0.00 | 53 | 1015.6 |
| 20260504181442 | 17 | 257 | 8.0 | 22.5 | 0.00 | 0.00 | 0.00 | 53 | 1015.6 |
| 20260504180942 | 18 | 288 | 8.0 | 22.5 | 0.00 | 0.00 | 0.00 | 54 | 1015.7 |
| 20260504180440 | 18 | 314 | 8.0 | 24.1 | 0.00 | 0.00 | 0.00 | 54 | 1015.7 |
| 20260504175940 | 18 | 317 | 9.7 | 24.1 | 0.00 | 0.00 | 0.00 | 54 | 1015.6 |
| 20260504175437 | 18 | 297 | 6.4 | 19.3 | 0.00 | 0.00 | 0.00 | 53 | 1015.7 |
| 20260504174937 | 18 | 347 | 6.4 | 16.1 | 0.00 | 0.00 | 0.00 | 53 | 1015.7 |
| 20260504174436 | 18 | 300 | 6.4 | 16.1 | 0.00 | 0.00 | 0.00 | 54 | 1015.6 |
| 20260504173937 | 18 | 315 | 8.0 | 20.9 | 0.00 | 0.00 | 0.00 | 55 | 1015.7 |
| 20260504173437 | 18 | 235 | 9.7 | 22.5 | 0.00 | 0.00 | 0.00 | 52 | 1015.8 |
| 20260504172937 | 18 | 317 | 8.0 | 22.5 | 0.00 | 0.00 | 0.00 | 54 | 1015.8 |
| 20260504172437 | 18 | 301 | 6.4 | 22.5 | 0.00 | 0.00 | 0.00 | 52 | 1015.7 |
| 20260504171937 | 18 | 184 | 6.4 | 16.1 | 0.00 | 0.00 | 0.00 | 54 | 1015.7 |
| 20260504171437 | 18 | 263 | 6.4 | 22.5 | 0.00 | 0.00 | 0.00 | 52 | 1015.7 |
| 20260504170937 | 17 | 44 | 6.4 | 22.5 | 0.00 | 0.00 | 0.00 | 53 | 1015.8 |
| 20260504170437 | 17 | 267 | 6.4 | 16.1 | 0.00 | 0.00 | 0.00 | 53 | 1015.8 |
| 20260504160429 | 16 | 269 | 6.4 | 14.5 | 0.00 | 0.00 | 0.00 | 57 | 1016.1 |
| 20260504150925 | 12 | 202 | 3.2 | 9.7 | 0.00 | 0.00 | 0.00 | 68 | 1017.4 |
| 20260504150425 | 12 | 42 | 4.8 | 16.1 | 0.00 | 0.00 | 0.00 | 68 | 1017.5 |
| 20260504140920 | 13 | 306 | 8.0 | 27.4 | 0.00 | 0.00 | 0.00 | 57 | 1017.7 |
| 20260504140417 | 13 | 297 | 8.0 | 17.7 | 0.00 | 0.00 | 0.00 | 56 | 1017.5 |
| 20260504130415 | 6 | 21 | 0.0 | 3.2 | 0.00 | 0.00 | 0.00 | 81 | 1017.0 |
| 20260504110334 | 0 | 0 | 0.0 | 1.6 | 0.00 | 0.00 | 0.00 | 100 | 1016.4 |
| 20260504100319 | 0 | 319 | 1.6 | 3.2 | 0.00 | 0.00 | 0.00 | 99 | 1016.5 |
| 20260504081752 | 0 | 316 | 4.8 | 8.0 | 0.00 | 0.00 | 0.00 | 97 | 1016.3 |
| 20260504081252 | 0 | 306 | 3.2 | 8.0 | 0.00 | 0.00 | 0.00 | 97 | 1016.3 |
| 20260504080752 | 0 | 313 | 4.8 | 8.0 | 0.00 | 0.00 | 0.00 | 97 | 1016.3 |
| 20260504080238 | 0 | 305 | 4.8 | 9.7 | 0.00 | 0.00 | 0.00 | 97 | 1016.2 |
| 20260504070222 | 0 | 311 | 6.4 | 9.7 | 0.00 | 0.00 | 0.00 | 96 | 1016.4 |
| 20260504060221 | 1 | 347 | 3.2 | 4.8 | 0.00 | 0.00 | 0.00 | 93 | 1017.0 |
| 20260504050720 | 2 | 293 | 0.0 | 3.2 | 0.00 | 0.00 | 0.00 | 90 | 1016.9 |
| 20260504050220 | 2 | 291 | 0.0 | 3.2 | 0.00 | 0.00 | 0.00 | 90 | 1016.9 |
| 20260504045720 | 2 | 11 | 0.0 | 3.2 | 0.00 | 0.00 | 0.00 | 90 | 1016.9 |
| 20260504045220 | 2 | 298 | 0.0 | 3.2 | 0.00 | 0.00 | 0.00 | 89 | 1016.9 |
| 20260504044720 | 2 | 0 | 1.6 | 4.8 | 0.00 | 0.00 | 0.00 | 89 | 1016.9 |
| 20260504044220 | 2 | 10 | 1.6 | 6.4 | 0.00 | 0.00 | 0.00 | 89 | 1016.9 |
| 20260504043720 | 2 | 304 | 3.2 | 6.4 | 0.00 | 0.00 | 0.00 | 87 | 1016.7 |
| 20260504043220 | 2 | 354 | 1.6 | 3.2 | 0.00 | 0.00 | 0.00 | 87 | 1016.9 |
| 20260504042721 | 2 | 335 | 1.6 | 3.2 | 0.00 | 0.00 | 0.00 | 88 | 1016.9 |
| 20260504042218 | 2 | 299 | 1.6 | 4.8 | 0.00 | 0.00 | 0.00 | 87 | 1016.9 |
| 20260504041717 | 2 | 0 | 1.6 | 4.8 | 0.00 | 0.00 | 0.00 | 87 | 1017.0 |
| 20260504041214 | 3 | 285 | 1.6 | 3.2 | 0.00 | 0.00 | 0.00 | 86 | 1017.0 |
| 20260504040714 | 3 | 0 | 0.0 | 3.2 | 0.00 | 0.00 | 0.00 | 86 | 1017.0 |
| 20260504040211 | 3 | 267 | 1.6 | 3.2 | 0.00 | 0.00 | 0.00 | 86 | 1017.0 |
| 20260504035712 | 3 | 294 | 1.6 | 4.8 | 0.00 | 0.00 | 0.00 | 86 | 1016.9 |
| 20260504035212 | 2 | 290 | 1.6 | 4.8 | 0.00 | 0.00 | 0.00 | 86 | 1016.9 |
| 20260504034712 | 2 | 303 | 1.6 | 4.8 | 0.00 | 0.00 | 0.00 | 86 | 1016.7 |
| 20260504034212 | 3 | 282 | 1.6 | 4.8 | 0.00 | 0.00 | 0.00 | 85 | 1016.7 |
| 20260504033713 | 3 | 287 | 1.6 | 4.8 | 0.00 | 0.00 | 0.00 | 83 | 1016.7 |
| 20260504033209 | 3 | 338 | 1.6 | 4.8 | 0.00 | 0.00 | 0.00 | 84 | 1016.7 |
| 20260504032711 | 3 | 307 | 1.6 | 4.8 | 0.00 | 0.00 | 0.00 | 83 | 1016.9 |
| 20260504032209 | 3 | 304 | 1.6 | 4.8 | 0.00 | 0.00 | 0.00 | 82 | 1016.7 |
| 20260504031710 | 3 | 0 | 1.6 | 6.4 | 0.00 | 0.00 | 0.00 | 81 | 1016.9 |
| 20260504031207 | 3 | 305 | 1.6 | 6.4 | 0.00 | 0.00 | 0.00 | 80 | 1016.7 |
| 20260504030708 | 3 | 359 | 3.2 | 6.4 | 0.00 | 0.00 | 0.00 | 80 | 1016.6 |
| 20260504030207 | 4 | 291 | 1.6 | 6.4 | 0.00 | 0.00 | 0.00 | 78 | 1016.6 |
| 20260504025707 | 4 | 311 | 1.6 | 9.7 | 0.00 | 0.00 | 0.00 | 78 | 1016.6 |
| 20260504025206 | 4 | 301 | 3.2 | 9.7 | 0.00 | 0.00 | 0.00 | 77 | 1016.6 |
| 20260504024707 | 4 | 281 | 3.2 | 9.7 | 0.00 | 0.00 | 0.00 | 76 | 1016.6 |
| 20260504024207 | 4 | 297 | 3.2 | 9.7 | 0.00 | 0.00 | 0.00 | 76 | 1016.7 |
| 20260504023708 | 4 | 318 | 3.2 | 6.4 | 0.00 | 0.00 | 0.00 | 76 | 1016.6 |
| 20260504023207 | 5 | 310 | 3.2 | 6.4 | 0.00 | 0.00 | 0.00 | 75 | 1016.6 |
| 20260504022707 | 5 | 283 | 1.6 | 4.8 | 0.00 | 0.00 | 0.00 | 73 | 1016.7 |
| 20260504022207 | 5 | 0 | 1.6 | 4.8 | 0.00 | 0.00 | 0.00 | 73 | 1016.7 |
| 20260504021704 | 5 | 301 | 3.2 | 6.4 | 0.00 | 0.00 | 0.00 | 72 | 1016.7 |
| 20260504021202 | 5 | 286 | 3.2 | 6.4 | 0.00 | 0.00 | 0.00 | 73 | 1016.7 |
| 20260504020701 | 5 | 297 | 3.2 | 4.8 | 0.00 | 0.00 | 0.00 | 70 | 1016.7 |
| 20260504020202 | 6 | 279 | 1.6 | 3.2 | 0.00 | 0.00 | 0.00 | 69 | 1016.5 |
| 20260504015702 | 6 | 303 | 3.2 | 6.4 | 0.00 | 0.00 | 0.00 | 68 | 1016.5 |
| 20260504015202 | 6 | 353 | 3.2 | 8.0 | 0.00 | 0.00 | 0.00 | 66 | 1016.5 |
| 20260504014703 | 6 | 316 | 3.2 | 8.0 | 0.00 | 0.00 | 0.00 | 68 | 1016.5 |
| 20260504014202 | 6 | 305 | 3.2 | 4.8 | 0.00 | 0.00 | 0.00 | 65 | 1016.2 |
| 20260504013703 | 6 | 313 | 3.2 | 4.8 | 0.00 | 0.00 | 0.00 | 65 | 1016.1 |
| 20260504013202 | 6 | 308 | 1.6 | 3.2 | 0.00 | 0.00 | 0.00 | 63 | 1016.1 |
| 20260504012702 | 6 | 0 | 0.0 | 3.2 | 0.00 | 0.00 | 0.00 | 64 | 1016.1 |
| 20260504012200 | 6 | 302 | 1.6 | 4.8 | 0.00 | 0.00 | 0.00 | 63 | 1016.2 |
| 20260504011700 | 7 | 283 | 3.2 | 4.8 | 0.00 | 0.00 | 0.00 | 63 | 1016.1 |
| 20260504011157 | 7 | 286 | 3.2 | 6.4 | 0.00 | 0.00 | 0.00 | 62 | 1016.1 |
| 20260504010656 | 7 | 276 | 3.2 | 6.4 | 0.00 | 0.00 | 0.00 | 63 | 1016.0 |
| 20260504010157 | 7 | 309 | 4.8 | 8.0 | 0.00 | 0.00 | 0.00 | 60 | 1015.9 |
| 20260504005657 | 8 | 313 | 4.8 | 8.0 | 0.00 | 0.00 | 0.00 | 59 | 1015.8 |
| 20260504005157 | 8 | 302 | 4.8 | 8.0 | 0.00 | 0.00 | 0.00 | 55 | 1015.8 |
| 20260504004657 | 9 | 319 | 3.2 | 6.4 | 0.00 | 0.00 | 0.00 | 51 | 1015.8 |
| 20260504004158 | 9 | 327 | 1.6 | 4.8 | 0.00 | 0.00 | 0.00 | 48 | 1015.8 |
| 20260504003657 | 10 | 277 | 3.2 | 6.4 | 0.00 | 0.00 | 0.00 | 49 | 1015.8 |
| 20260504003158 | 10 | 285 | 3.2 | 6.4 | 0.00 | 0.00 | 0.00 | 47 | 1015.8 |
| 20260504002655 | 10 | 323 | 1.6 | 6.4 | 0.00 | 0.00 | 0.00 | 44 | 1015.7 |
| 20260504002154 | 11 | 0 | 3.2 | 6.4 | 0.00 | 0.00 | 0.00 | 44 | 1015.7 |
| 20260504001652 | 11 | 16 | 3.2 | 6.4 | 0.00 | 0.00 | 0.00 | 41 | 1015.7 |
| 20260504001151 | 11 | 290 | 3.2 | 4.8 | 0.00 | 0.00 | 0.00 | 41 | 1015.6 |
| 20260504000648 | 11 | 304 | 3.2 | 4.8 | 0.00 | 0.00 | 0.00 | 41 | 1015.6 |
| 20260504000149 | 12 | 297 | 3.2 | 6.4 | 0.00 | 0.00 | 0.00 | 39 | 1015.6 |
| 20260503235650 | 12 | 293 | 3.2 | 6.4 | 0.00 | 0.00 | 0.00 | 37 | 1015.6 |
| 20260503235149 | 12 | 304 | 3.2 | 8.0 | 0.00 | 0.00 | 0.00 | 37 | 1015.6 |
| 20260503234649 | 12 | 276 | 4.8 | 9.7 | 0.00 | 0.00 | 0.00 | 37 | 1015.6 |
| 20260503234149 | 12 | 284 | 4.8 | 9.7 | 0.00 | 0.00 | 0.00 | 35 | 1015.6 |
| 20260503233649 | 13 | 305 | 4.8 | 11.3 | 0.00 | 0.00 | 0.00 | 35 | 1015.4 |
| 20260503233149 | 13 | 257 | 4.8 | 11.3 | 0.00 | 0.00 | 0.00 | 33 | 1015.4 |
| 20260503232646 | 13 | 190 | 4.8 | 11.3 | 0.00 | 0.00 | 0.00 | 33 | 1015.3 |
| 20260503232144 | 13 | 261 | 4.8 | 11.3 | 0.00 | 0.00 | 0.00 | 33 | 1015.3 |
| 20260503231643 | 13 | 249 | 6.4 | 12.9 | 0.00 | 0.00 | 0.00 | 33 | 1015.3 |
| 20260503231144 | 13 | 314 | 6.4 | 16.1 | 0.00 | 0.00 | 0.00 | 32 | 1015.3 |
| 20260503230643 | 13 | 294 | 6.4 | 16.1 | 0.00 | 0.00 | 0.00 | 32 | 1015.3 |
| 20260503230144 | 14 | 1 | 6.4 | 16.1 | 0.00 | 0.00 | 0.00 | 33 | 1015.3 |
| 20260503225644 | 14 | 228 | 6.4 | 12.9 | 0.00 | 0.00 | 0.00 | 31 | 1015.3 |
| 20260503225144 | 14 | 1 | 6.4 | 14.5 | 0.00 | 0.00 | 0.00 | 32 | 1015.3 |
| 20260503224644 | 14 | 163 | 6.4 | 14.5 | 0.00 | 0.00 | 0.00 | 36 | 1015.3 |
| 20260503224144 | 14 | 309 | 4.8 | 12.9 | 0.00 | 0.00 | 0.00 | 35 | 1015.3 |
| 20260503223644 | 14 | 315 | 4.8 | 12.9 | 0.00 | 0.00 | 0.00 | 36 | 1015.4 |
| 20260503223144 | 14 | 259 | 6.4 | 12.9 | 0.00 | 0.00 | 0.00 | 35 | 1015.4 |
| 20260503222645 | 14 | 9 | 6.4 | 12.9 | 0.00 | 0.00 | 0.00 | 34 | 1015.4 |
| 20260503222142 | 14 | 251 | 6.4 | 14.5 | 0.00 | 0.00 | 0.00 | 35 | 1015.6 |
| 20260503221641 | 14 | 284 | 6.4 | 14.5 | 0.00 | 0.00 | 0.00 | 34 | 1015.6 |
| 20260503221142 | 14 | 112 | 6.4 | 14.5 | 0.00 | 0.00 | 0.00 | 36 | 1015.6 |
| 20260503220638 | 14 | 304 | 6.4 | 14.5 | 0.00 | 0.00 | 0.00 | 35 | 1015.6 |
| 20260503220139 | 14 | 125 | 6.4 | 16.1 | 0.00 | 0.00 | 0.00 | 35 | 1015.4 |
| 20260503215639 | 14 | 245 | 8.0 | 19.3 | 0.00 | 0.00 | 0.00 | 35 | 1015.6 |
| 20260503215139 | 14 | 239 | 6.4 | 19.3 | 0.00 | 0.00 | 0.00 | 34 | 1015.6 |
| 20260503214639 | 15 | 289 | 4.8 | 12.9 | 0.00 | 0.00 | 0.00 | 34 | 1015.7 |
| 20260503214139 | 15 | 6 | 6.4 | 12.9 | 0.00 | 0.00 | 0.00 | 33 | 1015.7 |
| 20260503213639 | 14 | 177 | 6.4 | 14.5 | 0.00 | 0.00 | 0.00 | 33 | 1015.6 |
| 20260503213139 | 14 | 234 | 4.8 | 14.5 | 0.00 | 0.00 | 0.00 | 33 | 1015.6 |
| 20260503212639 | 15 | 185 | 6.4 | 16.1 | 0.00 | 0.00 | 0.00 | 33 | 1015.8 |
| 20260503212136 | 15 | 287 | 6.4 | 16.1 | 0.00 | 0.00 | 0.00 | 33 | 1015.6 |
| 20260503211637 | 15 | 250 | 4.8 | 12.9 | 0.00 | 0.00 | 0.00 | 34 | 1015.8 |
| 20260503211136 | 15 | 132 | 4.8 | 14.5 | 0.00 | 0.00 | 0.00 | 36 | 1015.8 |
| 20260503210637 | 14 | 221 | 6.4 | 16.1 | 0.00 | 0.00 | 0.00 | 35 | 1015.8 |
| 20260503210136 | 14 | 308 | 6.4 | 16.1 | 0.00 | 0.00 | 0.00 | 36 | 1015.8 |
| 20260503205637 | 14 | 233 | 6.4 | 16.1 | 0.00 | 0.00 | 0.00 | 34 | 1015.8 |
| 20260503205138 | 14 | 230 | 6.4 | 16.1 | 0.00 | 0.00 | 0.00 | 35 | 1015.8 |
| 20260503204637 | 14 | 197 | 4.8 | 11.3 | 0.00 | 0.00 | 0.00 | 36 | 1015.9 |
| 20260503204138 | 14 | 128 | 6.4 | 20.9 | 0.00 | 0.00 | 0.00 | 36 | 1015.9 |
| 20260503203637 | 14 | 237 | 6.4 | 20.9 | 0.00 | 0.00 | 0.00 | 36 | 1016.1 |
| 20260503203135 | 15 | 302 | 6.4 | 19.3 | 0.00 | 0.00 | 0.00 | 36 | 1016.0 |